sensor_id;sensor_type;location;lat;lon;timestamp;temperature;humidity
43151;DHT22;28755;51.478;5.702;2023-04-03T00:01:17;2.70;99.90
43151;DHT22;28755;51.478;5.702;2023-04-03T00:03:43;2.70;99.90
43151;DHT22;28755;51.478;5.702;2023-04-03T00:06:09;2.70;99.90
43151;DHT22;28755;51.478;5.702;2023-04-03T00:08:37;2.70;99.90
43151;DHT22;28755;51.478;5.702;2023-04-03T00:11:04;2.70;99.90
43151;DHT22;28755;51.478;5.702;2023-04-03T00:13:30;2.60;99.90
43151;DHT22;28755;51.478;5.702;2023-04-03T00:15:56;2.60;99.90
43151;DHT22;28755;51.478;5.702;2023-04-03T00:18:22;2.60;99.90
43151;DHT22;28755;51.478;5.702;2023-04-03T00:20:48;2.40;99.90
43151;DHT22;28755;51.478;5.702;2023-04-03T00:23:14;2.40;99.90
43151;DHT22;28755;51.478;5.702;2023-04-03T00:25:40;2.30;99.90
43151;DHT22;28755;51.478;5.702;2023-04-03T00:28:05;2.30;99.90
43151;DHT22;28755;51.478;5.702;2023-04-03T00:30:32;2.40;99.90
43151;DHT22;28755;51.478;5.702;2023-04-03T00:32:57;2.30;99.90
43151;DHT22;28755;51.478;5.702;2023-04-03T00:35:23;2.30;99.90
43151;DHT22;28755;51.478;5.702;2023-04-03T00:37:53;2.20;99.90
43151;DHT22;28755;51.478;5.702;2023-04-03T00:40:21;2.20;99.90
43151;DHT22;28755;51.478;5.702;2023-04-03T00:42:48;2.20;99.90
43151;DHT22;28755;51.478;5.702;2023-04-03T00:47:53;2.20;99.90
43151;DHT22;28755;51.478;5.702;2023-04-03T00:50:19;2.10;99.90
43151;DHT22;28755;51.478;5.702;2023-04-03T00:52:45;2.10;99.90
43151;DHT22;28755;51.478;5.702;2023-04-03T00:55:13;2.20;99.90
43151;DHT22;28755;51.478;5.702;2023-04-03T00:57:40;2.20;99.90
43151;DHT22;28755;51.478;5.702;2023-04-03T01:00:09;2.10;99.90
43151;DHT22;28755;51.478;5.702;2023-04-03T01:02:35;2.10;99.90
43151;DHT22;28755;51.478;5.702;2023-04-03T01:05:02;2.10;99.90
43151;DHT22;28755;51.478;5.702;2023-04-03T01:07:30;2.00;99.90
43151;DHT22;28755;51.478;5.702;2023-04-03T01:09:58;2.00;99.90
43151;DHT22;28755;51.478;5.702;2023-04-03T01:12:28;2.00;99.90
43151;DHT22;28755;51.478;5.702;2023-04-03T01:14:59;2.00;99.90
43151;DHT22;28755;51.478;5.702;2023-04-03T01:17:35;1.90;99.90
43151;DHT22;28755;51.478;5.702;2023-04-03T01:25:41;1.90;99.90
43151;DHT22;28755;51.478;5.702;2023-04-03T01:28:10;2.00;99.90
43151;DHT22;28755;51.478;5.702;2023-04-03T01:31:06;1.90;99.90
43151;DHT22;28755;51.478;5.702;2023-04-03T01:33:34;1.90;99.90
43151;DHT22;28755;51.478;5.702;2023-04-03T01:36:00;1.90;99.90
43151;DHT22;28755;51.478;5.702;2023-04-03T01:38:26;1.90;99.90
43151;DHT22;28755;51.478;5.702;2023-04-03T01:40:52;1.80;99.90
43151;DHT22;28755;51.478;5.702;2023-04-03T01:43:17;1.80;99.90
43151;DHT22;28755;51.478;5.702;2023-04-03T01:45:43;1.80;99.90
43151;DHT22;28755;51.478;5.702;2023-04-03T01:48:09;1.80;99.90
43151;DHT22;28755;51.478;5.702;2023-04-03T01:50:34;1.90;99.90
43151;DHT22;28755;51.478;5.702;2023-04-03T01:53:00;1.90;99.90
43151;DHT22;28755;51.478;5.702;2023-04-03T01:55:25;1.90;99.90
43151;DHT22;28755;51.478;5.702;2023-04-03T01:57:51;1.80;99.90
43151;DHT22;28755;51.478;5.702;2023-04-03T02:00:16;1.80;99.90
43151;DHT22;28755;51.478;5.702;2023-04-03T02:02:42;1.80;99.90
43151;DHT22;28755;51.478;5.702;2023-04-03T02:05:08;1.90;99.90
43151;DHT22;28755;51.478;5.702;2023-04-03T02:07:33;1.90;99.90
43151;DHT22;28755;51.478;5.702;2023-04-03T02:09:59;1.90;99.90
43151;DHT22;28755;51.478;5.702;2023-04-03T02:12:25;1.90;99.90
43151;DHT22;28755;51.478;5.702;2023-04-03T02:14:50;2.00;99.90
43151;DHT22;28755;51.478;5.702;2023-04-03T02:17:16;2.00;99.90
43151;DHT22;28755;51.478;5.702;2023-04-03T02:19:41;1.90;99.90
43151;DHT22;28755;51.478;5.702;2023-04-03T02:22:07;1.90;99.90
43151;DHT22;28755;51.478;5.702;2023-04-03T02:24:33;1.90;99.90
43151;DHT22;28755;51.478;5.702;2023-04-03T02:26:59;1.80;99.90
43151;DHT22;28755;51.478;5.702;2023-04-03T02:29:25;1.80;99.90
43151;DHT22;28755;51.478;5.702;2023-04-03T02:31:50;1.80;99.90
43151;DHT22;28755;51.478;5.702;2023-04-03T02:34:17;1.80;99.90
43151;DHT22;28755;51.478;5.702;2023-04-03T02:36:42;1.80;99.90
43151;DHT22;28755;51.478;5.702;2023-04-03T02:39:08;1.80;99.90
43151;DHT22;28755;51.478;5.702;2023-04-03T02:41:34;1.80;99.90
43151;DHT22;28755;51.478;5.702;2023-04-03T02:44:04;1.70;99.90
43151;DHT22;28755;51.478;5.702;2023-04-03T02:46:30;1.70;99.90
43151;DHT22;28755;51.478;5.702;2023-04-03T02:48:56;1.80;99.90
43151;DHT22;28755;51.478;5.702;2023-04-03T02:51:22;1.80;99.90
43151;DHT22;28755;51.478;5.702;2023-04-03T02:53:48;1.70;99.90
43151;DHT22;28755;51.478;5.702;2023-04-03T02:56:14;1.70;99.90
43151;DHT22;28755;51.478;5.702;2023-04-03T02:58:39;1.70;99.90
43151;DHT22;28755;51.478;5.702;2023-04-03T03:01:05;1.80;99.90
43151;DHT22;28755;51.478;5.702;2023-04-03T03:03:31;1.80;99.90
43151;DHT22;28755;51.478;5.702;2023-04-03T03:08:31;1.70;99.90
43151;DHT22;28755;51.478;5.702;2023-04-03T03:10:57;1.80;99.90
43151;DHT22;28755;51.478;5.702;2023-04-03T03:13:22;1.70;99.90
43151;DHT22;28755;51.478;5.702;2023-04-03T03:15:48;1.70;99.90
43151;DHT22;28755;51.478;5.702;2023-04-03T03:18:14;1.70;99.90
43151;DHT22;28755;51.478;5.702;2023-04-03T03:20:39;1.70;99.90
43151;DHT22;28755;51.478;5.702;2023-04-03T03:23:05;1.80;99.90
43151;DHT22;28755;51.478;5.702;2023-04-03T03:25:31;1.70;99.90
43151;DHT22;28755;51.478;5.702;2023-04-03T03:27:56;1.70;99.90
43151;DHT22;28755;51.478;5.702;2023-04-03T03:30:22;1.60;99.90
43151;DHT22;28755;51.478;5.702;2023-04-03T03:32:47;1.60;99.90
43151;DHT22;28755;51.478;5.702;2023-04-03T03:35:13;1.60;99.90
43151;DHT22;28755;51.478;5.702;2023-04-03T03:37:39;1.60;99.90
43151;DHT22;28755;51.478;5.702;2023-04-03T03:40:05;1.60;99.90
43151;DHT22;28755;51.478;5.702;2023-04-03T03:42:31;1.50;99.90
43151;DHT22;28755;51.478;5.702;2023-04-03T03:44:56;1.50;99.90
43151;DHT22;28755;51.478;5.702;2023-04-03T03:47:22;1.50;99.90
43151;DHT22;28755;51.478;5.702;2023-04-03T03:49:47;1.50;99.90
43151;DHT22;28755;51.478;5.702;2023-04-03T03:52:13;1.50;99.90
43151;DHT22;28755;51.478;5.702;2023-04-03T03:54:38;1.50;99.90
43151;DHT22;28755;51.478;5.702;2023-04-03T03:57:04;1.40;99.90
43151;DHT22;28755;51.478;5.702;2023-04-03T03:59:30;1.50;99.90
43151;DHT22;28755;51.478;5.702;2023-04-03T04:01:55;1.60;99.90
43151;DHT22;28755;51.478;5.702;2023-04-03T04:04:21;1.50;99.90
43151;DHT22;28755;51.478;5.702;2023-04-03T04:06:47;1.50;99.90
43151;DHT22;28755;51.478;5.702;2023-04-03T04:09:12;1.40;99.90
43151;DHT22;28755;51.478;5.702;2023-04-03T04:11:38;1.40;99.90
43151;DHT22;28755;51.478;5.702;2023-04-03T04:14:05;1.40;99.90
43151;DHT22;28755;51.478;5.702;2023-04-03T04:16:31;1.30;99.90
43151;DHT22;28755;51.478;5.702;2023-04-03T04:18:57;1.30;99.90
43151;DHT22;28755;51.478;5.702;2023-04-03T04:21:22;1.30;99.90
43151;DHT22;28755;51.478;5.702;2023-04-03T04:23:48;1.40;99.90
43151;DHT22;28755;51.478;5.702;2023-04-03T04:26:13;1.30;99.90
43151;DHT22;28755;51.478;5.702;2023-04-03T04:28:39;1.30;99.90
43151;DHT22;28755;51.478;5.702;2023-04-03T04:31:04;1.30;99.90
43151;DHT22;28755;51.478;5.702;2023-04-03T04:33:30;1.30;99.90
43151;DHT22;28755;51.478;5.702;2023-04-03T04:35:56;1.30;99.90
43151;DHT22;28755;51.478;5.702;2023-04-03T04:38:21;1.20;99.90
43151;DHT22;28755;51.478;5.702;2023-04-03T04:40:48;1.20;99.90
43151;DHT22;28755;51.478;5.702;2023-04-03T04:43:13;1.20;99.90
43151;DHT22;28755;51.478;5.702;2023-04-03T04:45:40;1.20;99.90
43151;DHT22;28755;51.478;5.702;2023-04-03T04:48:06;1.30;99.90
43151;DHT22;28755;51.478;5.702;2023-04-03T04:50:32;1.20;99.90
43151;DHT22;28755;51.478;5.702;2023-04-03T04:52:57;1.20;99.90
43151;DHT22;28755;51.478;5.702;2023-04-03T04:55:23;1.20;99.90
43151;DHT22;28755;51.478;5.702;2023-04-03T04:57:48;1.20;99.90
43151;DHT22;28755;51.478;5.702;2023-04-03T05:00:15;1.20;99.90
43151;DHT22;28755;51.478;5.702;2023-04-03T05:02:41;1.30;99.90
43151;DHT22;28755;51.478;5.702;2023-04-03T05:05:07;1.30;99.90
43151;DHT22;28755;51.478;5.702;2023-04-03T05:10:54;1.30;99.90
43151;DHT22;28755;51.478;5.702;2023-04-03T05:13:20;1.30;99.90
43151;DHT22;28755;51.478;5.702;2023-04-03T05:15:46;1.30;99.90
43151;DHT22;28755;51.478;5.702;2023-04-03T05:18:12;1.30;99.90
43151;DHT22;28755;51.478;5.702;2023-04-03T05:20:38;1.30;99.90
43151;DHT22;28755;51.478;5.702;2023-04-03T05:23:04;1.30;99.90
43151;DHT22;28755;51.478;5.702;2023-04-03T05:25:30;1.30;99.90
43151;DHT22;28755;51.478;5.702;2023-04-03T05:27:55;1.40;99.90
43151;DHT22;28755;51.478;5.702;2023-04-03T05:30:23;1.40;99.90
43151;DHT22;28755;51.478;5.702;2023-04-03T05:32:49;1.50;99.90
43151;DHT22;28755;51.478;5.702;2023-04-03T05:35:15;1.50;99.90
43151;DHT22;28755;51.478;5.702;2023-04-03T05:37:40;1.60;99.90
43151;DHT22;28755;51.478;5.702;2023-04-03T05:40:07;1.70;99.90
43151;DHT22;28755;51.478;5.702;2023-04-03T05:42:33;1.70;99.90
43151;DHT22;28755;51.478;5.702;2023-04-03T05:44:58;1.80;99.90
43151;DHT22;28755;51.478;5.702;2023-04-03T05:47:24;1.80;99.90
43151;DHT22;28755;51.478;5.702;2023-04-03T05:49:50;1.80;99.90
43151;DHT22;28755;51.478;5.702;2023-04-03T05:52:34;1.90;99.90
43151;DHT22;28755;51.478;5.702;2023-04-03T05:55:00;2.00;99.90
43151;DHT22;28755;51.478;5.702;2023-04-03T05:57:26;2.10;99.90
43151;DHT22;28755;51.478;5.702;2023-04-03T05:59:52;2.10;99.90
43151;DHT22;28755;51.478;5.702;2023-04-03T06:02:19;2.20;99.90
43151;DHT22;28755;51.478;5.702;2023-04-03T06:04:46;2.20;99.90
43151;DHT22;28755;51.478;5.702;2023-04-03T06:07:15;2.30;99.90
43151;DHT22;28755;51.478;5.702;2023-04-03T06:09:42;2.40;99.90
43151;DHT22;28755;51.478;5.702;2023-04-03T06:12:08;2.50;99.90
43151;DHT22;28755;51.478;5.702;2023-04-03T06:14:33;2.50;99.90
43151;DHT22;28755;51.478;5.702;2023-04-03T06:16:59;2.60;99.90
43151;DHT22;28755;51.478;5.702;2023-04-03T06:19:25;2.70;99.90
43151;DHT22;28755;51.478;5.702;2023-04-03T06:21:51;2.80;99.90
43151;DHT22;28755;51.478;5.702;2023-04-03T06:24:17;2.90;99.90
43151;DHT22;28755;51.478;5.702;2023-04-03T06:26:43;2.90;99.90
43151;DHT22;28755;51.478;5.702;2023-04-03T06:29:16;3.00;99.90
43151;DHT22;28755;51.478;5.702;2023-04-03T06:31:42;3.00;99.90
43151;DHT22;28755;51.478;5.702;2023-04-03T06:34:07;3.10;99.90
43151;DHT22;28755;51.478;5.702;2023-04-03T06:36:33;3.20;99.90
43151;DHT22;28755;51.478;5.702;2023-04-03T06:39:00;3.30;99.90
43151;DHT22;28755;51.478;5.702;2023-04-03T06:41:26;3.30;99.90
43151;DHT22;28755;51.478;5.702;2023-04-03T06:43:52;3.40;99.90
43151;DHT22;28755;51.478;5.702;2023-04-03T06:46:20;3.50;99.90
43151;DHT22;28755;51.478;5.702;2023-04-03T06:48:46;3.60;99.90
43151;DHT22;28755;51.478;5.702;2023-04-03T06:51:27;3.70;99.90
43151;DHT22;28755;51.478;5.702;2023-04-03T06:53:55;3.80;99.90
43151;DHT22;28755;51.478;5.702;2023-04-03T06:56:21;3.90;99.90
43151;DHT22;28755;51.478;5.702;2023-04-03T06:58:48;4.00;99.90
43151;DHT22;28755;51.478;5.702;2023-04-03T07:01:15;4.30;99.90
43151;DHT22;28755;51.478;5.702;2023-04-03T07:03:41;4.50;99.90
43151;DHT22;28755;51.478;5.702;2023-04-03T07:06:11;4.70;99.90
43151;DHT22;28755;51.478;5.702;2023-04-03T07:08:36;4.90;99.90
43151;DHT22;28755;51.478;5.702;2023-04-03T07:11:04;4.90;99.90
43151;DHT22;28755;51.478;5.702;2023-04-03T07:13:31;5.00;99.90
43151;DHT22;28755;51.478;5.702;2023-04-03T07:15:56;5.20;99.90
43151;DHT22;28755;51.478;5.702;2023-04-03T07:18:22;5.50;99.90
43151;DHT22;28755;51.478;5.702;2023-04-03T07:20:48;5.80;99.90
43151;DHT22;28755;51.478;5.702;2023-04-03T07:23:14;6.10;99.90
43151;DHT22;28755;51.478;5.702;2023-04-03T07:25:44;6.70;99.90
43151;DHT22;28755;51.478;5.702;2023-04-03T07:28:10;7.20;99.90
43151;DHT22;28755;51.478;5.702;2023-04-03T07:30:45;7.90;99.90
43151;DHT22;28755;51.478;5.702;2023-04-03T07:33:12;8.00;99.90
43151;DHT22;28755;51.478;5.702;2023-04-03T07:35:39;8.00;99.90
43151;DHT22;28755;51.478;5.702;2023-04-03T07:38:04;8.70;99.90
43151;DHT22;28755;51.478;5.702;2023-04-03T07:40:31;9.40;99.90
43151;DHT22;28755;51.478;5.702;2023-04-03T07:42:56;10.10;99.90
43151;DHT22;28755;51.478;5.702;2023-04-03T07:45:22;10.20;99.90
43151;DHT22;28755;51.478;5.702;2023-04-03T07:47:48;10.70;99.90
43151;DHT22;28755;51.478;5.702;2023-04-03T07:50:13;10.70;99.90
43151;DHT22;28755;51.478;5.702;2023-04-03T07:52:40;10.60;99.90
43151;DHT22;28755;51.478;5.702;2023-04-03T07:55:06;11.60;99.90
43151;DHT22;28755;51.478;5.702;2023-04-03T07:57:31;12.20;99.90
43151;DHT22;28755;51.478;5.702;2023-04-03T07:59:57;11.90;99.90
43151;DHT22;28755;51.478;5.702;2023-04-03T08:02:22;11.50;99.90
43151;DHT22;28755;51.478;5.702;2023-04-03T08:04:48;11.00;99.90
43151;DHT22;28755;51.478;5.702;2023-04-03T08:07:13;10.50;99.90
43151;DHT22;28755;51.478;5.702;2023-04-03T08:09:39;10.50;99.90
43151;DHT22;28755;51.478;5.702;2023-04-03T08:12:05;10.60;99.90
43151;DHT22;28755;51.478;5.702;2023-04-03T08:14:31;10.60;99.90
43151;DHT22;28755;51.478;5.702;2023-04-03T08:16:59;10.50;99.90
43151;DHT22;28755;51.478;5.702;2023-04-03T08:19:26;10.80;99.90
43151;DHT22;28755;51.478;5.702;2023-04-03T08:21:53;11.70;99.90
43151;DHT22;28755;51.478;5.702;2023-04-03T08:24:18;12.50;99.90
43151;DHT22;28755;51.478;5.702;2023-04-03T08:26:44;13.10;99.90
43151;DHT22;28755;51.478;5.702;2023-04-03T08:29:09;13.30;99.90
43151;DHT22;28755;51.478;5.702;2023-04-03T08:31:35;14.00;99.90
43151;DHT22;28755;51.478;5.702;2023-04-03T08:34:00;14.20;99.50
43151;DHT22;28755;51.478;5.702;2023-04-03T08:36:27;14.50;98.00
43151;DHT22;28755;51.478;5.702;2023-04-03T08:38:55;13.80;97.50
43151;DHT22;28755;51.478;5.702;2023-04-03T08:41:40;13.60;97.60
43151;DHT22;28755;51.478;5.702;2023-04-03T08:44:28;13.60;97.70
43151;DHT22;28755;51.478;5.702;2023-04-03T08:50:17;16.10;93.80
43151;DHT22;28755;51.478;5.702;2023-04-03T08:52:49;15.90;93.40
43151;DHT22;28755;51.478;5.702;2023-04-03T08:57:51;17.80;90.50
43151;DHT22;28755;51.478;5.702;2023-04-03T09:00:23;18.90;84.70
43151;DHT22;28755;51.478;5.702;2023-04-03T09:02:52;19.00;83.40
43151;DHT22;28755;51.478;5.702;2023-04-03T09:05:43;17.90;80.80
43151;DHT22;28755;51.478;5.702;2023-04-03T09:11:16;18.00;78.60
43151;DHT22;28755;51.478;5.702;2023-04-03T09:13:55;17.50;78.70
43151;DHT22;28755;51.478;5.702;2023-04-03T09:16:32;17.10;78.90
43151;DHT22;28755;51.478;5.702;2023-04-03T09:19:36;17.20;78.70
43151;DHT22;28755;51.478;5.702;2023-04-03T09:22:16;19.10;78.90
43151;DHT22;28755;51.478;5.702;2023-04-03T09:24:45;19.90;75.20
43151;DHT22;28755;51.478;5.702;2023-04-03T09:27:11;20.60;72.50
43151;DHT22;28755;51.478;5.702;2023-04-03T09:29:43;21.20;72.40
43151;DHT22;28755;51.478;5.702;2023-04-03T09:32:31;21.60;71.40
43151;DHT22;28755;51.478;5.702;2023-04-03T09:35:02;22.20;70.00
43151;DHT22;28755;51.478;5.702;2023-04-03T09:40:06;21.50;67.10
43151;DHT22;28755;51.478;5.702;2023-04-03T09:42:59;21.30;65.80
43151;DHT22;28755;51.478;5.702;2023-04-03T09:45:31;21.90;64.70
43151;DHT22;28755;51.478;5.702;2023-04-03T09:48:16;22.20;65.30
43151;DHT22;28755;51.478;5.702;2023-04-03T09:50:55;22.10;64.70
43151;DHT22;28755;51.478;5.702;2023-04-03T09:53:39;21.60;64.20
43151;DHT22;28755;51.478;5.702;2023-04-03T09:56:28;21.10;64.10
43151;DHT22;28755;51.478;5.702;2023-04-03T10:01:39;20.30;64.90
43151;DHT22;28755;51.478;5.702;2023-04-03T10:04:10;21.30;62.50
43151;DHT22;28755;51.478;5.702;2023-04-03T10:06:43;21.20;61.30
43151;DHT22;28755;51.478;5.702;2023-04-03T10:14:36;21.90;61.00
43151;DHT22;28755;51.478;5.702;2023-04-03T10:20:10;23.20;60.60
43151;DHT22;28755;51.478;5.702;2023-04-03T10:28:02;22.50;59.50
43151;DHT22;28755;51.478;5.702;2023-04-03T10:33:45;22.30;57.50
43151;DHT22;28755;51.478;5.702;2023-04-03T10:36:17;22.30;58.60
43151;DHT22;28755;51.478;5.702;2023-04-03T10:44:51;21.30;58.20
43151;DHT22;28755;51.478;5.702;2023-04-03T10:47:36;20.90;57.00
43151;DHT22;28755;51.478;5.702;2023-04-03T10:55:40;22.20;57.30
43151;DHT22;28755;51.478;5.702;2023-04-03T10:58:27;22.10;57.50
43151;DHT22;28755;51.478;5.702;2023-04-03T11:00:59;21.80;55.80
43151;DHT22;28755;51.478;5.702;2023-04-03T11:03:40;21.50;56.40
43151;DHT22;28755;51.478;5.702;2023-04-03T11:06:09;21.80;58.00
43151;DHT22;28755;51.478;5.702;2023-04-03T11:08:57;21.60;56.90
43151;DHT22;28755;51.478;5.702;2023-04-03T11:11:27;21.80;55.20
43151;DHT22;28755;51.478;5.702;2023-04-03T11:14:11;22.00;55.20
43151;DHT22;28755;51.478;5.702;2023-04-03T11:16:45;21.40;56.00
43151;DHT22;28755;51.478;5.702;2023-04-03T11:19:22;21.80;56.50
43151;DHT22;28755;51.478;5.702;2023-04-03T11:21:57;21.90;55.70
43151;DHT22;28755;51.478;5.702;2023-04-03T11:24:29;21.70;55.80
43151;DHT22;28755;51.478;5.702;2023-04-03T11:26:58;21.40;55.50
43151;DHT22;28755;51.478;5.702;2023-04-03T11:29:32;22.00;56.80
43151;DHT22;28755;51.478;5.702;2023-04-03T11:34:42;21.90;55.30
43151;DHT22;28755;51.478;5.702;2023-04-03T11:37:20;23.30;56.70
43151;DHT22;28755;51.478;5.702;2023-04-03T11:39:56;23.60;56.00
43151;DHT22;28755;51.478;5.702;2023-04-03T11:42:28;23.40;54.30
43151;DHT22;28755;51.478;5.702;2023-04-03T11:45:17;22.50;54.50
43151;DHT22;28755;51.478;5.702;2023-04-03T11:47:51;22.80;55.30
43151;DHT22;28755;51.478;5.702;2023-04-03T11:50:40;23.40;53.20
43151;DHT22;28755;51.478;5.702;2023-04-03T12:00:46;24.40;55.80
43151;DHT22;28755;51.478;5.702;2023-04-03T12:13:35;23.40;54.90
43151;DHT22;28755;51.478;5.702;2023-04-03T12:16:01;23.30;55.30
43151;DHT22;28755;51.478;5.702;2023-04-03T12:26:50;23.30;55.10
43151;DHT22;28755;51.478;5.702;2023-04-03T12:29:34;23.40;55.80
43151;DHT22;28755;51.478;5.702;2023-04-03T12:37:07;24.50;55.30
43151;DHT22;28755;51.478;5.702;2023-04-03T12:42:40;23.50;55.00
43151;DHT22;28755;51.478;5.702;2023-04-03T12:45:24;22.80;55.90
43151;DHT22;28755;51.478;5.702;2023-04-03T12:47:53;22.40;56.40
43151;DHT22;28755;51.478;5.702;2023-04-03T12:50:29;22.00;56.90
43151;DHT22;28755;51.478;5.702;2023-04-03T12:53:05;22.30;56.80
43151;DHT22;28755;51.478;5.702;2023-04-03T12:55:31;22.30;55.90
43151;DHT22;28755;51.478;5.702;2023-04-03T12:58:12;22.20;55.90
43151;DHT22;28755;51.478;5.702;2023-04-03T13:00:38;22.90;55.80
43151;DHT22;28755;51.478;5.702;2023-04-03T13:03:06;23.00;56.40
43151;DHT22;28755;51.478;5.702;2023-04-03T13:05:33;22.80;56.70
43151;DHT22;28755;51.478;5.702;2023-04-03T13:08:03;22.80;55.70
43151;DHT22;28755;51.478;5.702;2023-04-03T13:10:31;22.30;56.30
43151;DHT22;28755;51.478;5.702;2023-04-03T13:13:06;22.00;58.00
43151;DHT22;28755;51.478;5.702;2023-04-03T13:15:44;20.90;56.90
43151;DHT22;28755;51.478;5.702;2023-04-03T13:20:52;19.50;59.90
43151;DHT22;28755;51.478;5.702;2023-04-03T13:23:20;19.40;59.30
43151;DHT22;28755;51.478;5.702;2023-04-03T13:25:47;19.90;59.30
43151;DHT22;28755;51.478;5.702;2023-04-03T13:28:15;20.40;58.70
43151;DHT22;28755;51.478;5.702;2023-04-03T13:30:59;20.80;59.50
43151;DHT22;28755;51.478;5.702;2023-04-03T13:33:29;20.00;58.90
43151;DHT22;28755;51.478;5.702;2023-04-03T13:36:18;18.60;59.10
43151;DHT22;28755;51.478;5.702;2023-04-03T13:38:44;18.10;60.00
43151;DHT22;28755;51.478;5.702;2023-04-03T13:41:34;17.20;59.90
43151;DHT22;28755;51.478;5.702;2023-04-03T13:46:48;16.50;61.90
43151;DHT22;28755;51.478;5.702;2023-04-03T13:51:59;17.00;61.70
43151;DHT22;28755;51.478;5.702;2023-04-03T13:56:55;17.20;63.30
43151;DHT22;28755;51.478;5.702;2023-04-03T13:59:30;16.80;62.80
43151;DHT22;28755;51.478;5.702;2023-04-03T14:04:54;17.90;62.40
43151;DHT22;28755;51.478;5.702;2023-04-03T14:07:21;17.20;61.30
43151;DHT22;28755;51.478;5.702;2023-04-03T14:09:47;15.90;62.40
43151;DHT22;28755;51.478;5.702;2023-04-03T14:12:33;15.40;62.30
43151;DHT22;28755;51.478;5.702;2023-04-03T14:15:05;15.40;65.00
43151;DHT22;28755;51.478;5.702;2023-04-03T14:17:33;15.30;64.70
43151;DHT22;28755;51.478;5.702;2023-04-03T14:19:59;14.50;64.90
43151;DHT22;28755;51.478;5.702;2023-04-03T14:22:29;14.30;65.40
43151;DHT22;28755;51.478;5.702;2023-04-03T14:24:56;14.70;65.00
43151;DHT22;28755;51.478;5.702;2023-04-03T14:27:35;15.10;64.30
43151;DHT22;28755;51.478;5.702;2023-04-03T14:30:02;15.50;63.80
43151;DHT22;28755;51.478;5.702;2023-04-03T14:32:29;16.10;63.80
43151;DHT22;28755;51.478;5.702;2023-04-03T14:34:56;16.40;62.40
43151;DHT22;28755;51.478;5.702;2023-04-03T14:37:25;16.00;63.40
43151;DHT22;28755;51.478;5.702;2023-04-03T14:39:53;15.90;63.90
43151;DHT22;28755;51.478;5.702;2023-04-03T14:42:22;16.10;63.20
43151;DHT22;28755;51.478;5.702;2023-04-03T14:44:48;16.10;63.00
43151;DHT22;28755;51.478;5.702;2023-04-03T14:47:18;15.90;64.40
43151;DHT22;28755;51.478;5.702;2023-04-03T14:49:45;16.10;64.00
43151;DHT22;28755;51.478;5.702;2023-04-03T14:52:29;16.00;64.70
43151;DHT22;28755;51.478;5.702;2023-04-03T14:54:55;16.10;63.90
43151;DHT22;28755;51.478;5.702;2023-04-03T14:57:24;16.20;63.50
43151;DHT22;28755;51.478;5.702;2023-04-03T14:59:50;16.10;64.00
43151;DHT22;28755;51.478;5.702;2023-04-03T15:02:31;16.10;63.50
43151;DHT22;28755;51.478;5.702;2023-04-03T15:04:58;16.10;63.40
43151;DHT22;28755;51.478;5.702;2023-04-03T15:07:25;17.30;63.10
43151;DHT22;28755;51.478;5.702;2023-04-03T15:09:52;17.90;61.90
43151;DHT22;28755;51.478;5.702;2023-04-03T15:12:17;17.90;61.60
43151;DHT22;28755;51.478;5.702;2023-04-03T15:14:43;18.40;61.90
43151;DHT22;28755;51.478;5.702;2023-04-03T15:17:15;18.20;61.60
43151;DHT22;28755;51.478;5.702;2023-04-03T15:19:42;18.40;62.10
43151;DHT22;28755;51.478;5.702;2023-04-03T15:22:13;18.10;62.00
43151;DHT22;28755;51.478;5.702;2023-04-03T15:24:39;17.70;63.40
43151;DHT22;28755;51.478;5.702;2023-04-03T15:27:04;17.70;63.50
43151;DHT22;28755;51.478;5.702;2023-04-03T15:29:30;17.90;62.60
43151;DHT22;28755;51.478;5.702;2023-04-03T15:31:55;17.70;62.50
43151;DHT22;28755;51.478;5.702;2023-04-03T15:34:21;17.20;63.20
43151;DHT22;28755;51.478;5.702;2023-04-03T15:36:47;17.10;63.20
43151;DHT22;28755;51.478;5.702;2023-04-03T15:39:12;16.90;63.30
43151;DHT22;28755;51.478;5.702;2023-04-03T15:41:38;16.70;64.00
43151;DHT22;28755;51.478;5.702;2023-04-03T15:44:04;16.50;63.50
43151;DHT22;28755;51.478;5.702;2023-04-03T15:46:29;16.90;63.70
43151;DHT22;28755;51.478;5.702;2023-04-03T15:48:55;17.20;62.90
43151;DHT22;28755;51.478;5.702;2023-04-03T15:51:21;17.90;62.80
43151;DHT22;28755;51.478;5.702;2023-04-03T15:53:46;18.60;62.60
43151;DHT22;28755;51.478;5.702;2023-04-03T15:56:12;18.20;61.40
43151;DHT22;28755;51.478;5.702;2023-04-03T15:58:37;17.60;62.20
43151;DHT22;28755;51.478;5.702;2023-04-03T16:01:03;17.20;62.40
43151;DHT22;28755;51.478;5.702;2023-04-03T16:03:29;17.60;62.60
43151;DHT22;28755;51.478;5.702;2023-04-03T16:05:55;17.50;62.80
43151;DHT22;28755;51.478;5.702;2023-04-03T16:08:21;17.60;63.20
43151;DHT22;28755;51.478;5.702;2023-04-03T16:10:46;17.50;62.80
43151;DHT22;28755;51.478;5.702;2023-04-03T16:13:13;17.70;63.70
43151;DHT22;28755;51.478;5.702;2023-04-03T16:15:39;18.20;62.60
43151;DHT22;28755;51.478;5.702;2023-04-03T16:18:05;17.70;63.10
43151;DHT22;28755;51.478;5.702;2023-04-03T16:20:31;17.80;63.30
43151;DHT22;28755;51.478;5.702;2023-04-03T16:22:59;18.00;62.40
43151;DHT22;28755;51.478;5.702;2023-04-03T16:25:25;18.00;62.90
43151;DHT22;28755;51.478;5.702;2023-04-03T16:27:51;17.70;62.60
43151;DHT22;28755;51.478;5.702;2023-04-03T16:30:17;17.00;62.20
43151;DHT22;28755;51.478;5.702;2023-04-03T16:32:43;16.00;63.80
43151;DHT22;28755;51.478;5.702;2023-04-03T16:35:10;15.90;64.90
43151;DHT22;28755;51.478;5.702;2023-04-03T16:37:36;15.80;65.20
43151;DHT22;28755;51.478;5.702;2023-04-03T16:40:02;15.90;66.20
43151;DHT22;28755;51.478;5.702;2023-04-03T16:42:28;15.80;65.70
43151;DHT22;28755;51.478;5.702;2023-04-03T16:44:54;15.90;65.30
43151;DHT22;28755;51.478;5.702;2023-04-03T16:47:19;16.00;65.30
43151;DHT22;28755;51.478;5.702;2023-04-03T16:49:46;15.90;64.60
43151;DHT22;28755;51.478;5.702;2023-04-03T16:52:11;15.80;64.80
43151;DHT22;28755;51.478;5.702;2023-04-03T16:54:37;15.80;65.80
43151;DHT22;28755;51.478;5.702;2023-04-03T16:57:02;15.30;66.20
43151;DHT22;28755;51.478;5.702;2023-04-03T16:59:31;14.80;66.80
43151;DHT22;28755;51.478;5.702;2023-04-03T17:01:56;14.00;67.10
43151;DHT22;28755;51.478;5.702;2023-04-03T17:04:22;13.80;68.00
43151;DHT22;28755;51.478;5.702;2023-04-03T17:06:48;13.50;68.30
43151;DHT22;28755;51.478;5.702;2023-04-03T17:09:13;13.50;68.80
43151;DHT22;28755;51.478;5.702;2023-04-03T17:11:40;13.20;68.80
43151;DHT22;28755;51.478;5.702;2023-04-03T17:14:06;13.20;69.50
43151;DHT22;28755;51.478;5.702;2023-04-03T17:16:33;12.90;70.40
43151;DHT22;28755;51.478;5.702;2023-04-03T17:18:59;12.80;70.40
43151;DHT22;28755;51.478;5.702;2023-04-03T17:21:26;12.30;70.70
43151;DHT22;28755;51.478;5.702;2023-04-03T17:23:55;12.00;71.40
43151;DHT22;28755;51.478;5.702;2023-04-03T17:26:23;11.60;72.80
43151;DHT22;28755;51.478;5.702;2023-04-03T17:28:48;11.10;72.90
43151;DHT22;28755;51.478;5.702;2023-04-03T17:31:14;10.90;73.30
43151;DHT22;28755;51.478;5.702;2023-04-03T17:33:40;10.60;73.90